Latest Weather Observations for Maatsuyker Island

IDT60801

Issued at 3:11 pm EST Saturday 22 June 2024 (issued every 10 minutes, with the page automatically refreshed every 10 minutes)

About weather observations | Map of weather stations | Latest weather observations for TAS | Other Formats
Station Details ID: 094041 Name: MAATSUYKER ISLAND LIGHTHOUSE Lat: -43.66 Lon: 146.27 Height: 146.5 m
Data from the previous 72 hours. | See also: Recent months at Maatsuyker Island
Date/Time
EST
Temp
°C
App
Temp
°C
Dew
Point
°C
Rel
Hum
%
Delta-T
°C
Wind Press
QNH
hPa
Press
MSL
hPa
Rain since
9am
mm
Dir  Spd
km/h
Gust
km/h
Spd
kts
Gust
kts
22/03:00pm 10.7 2.9 8.3 85 1.2 WNW 39 46 21 25 1027.0 1027.3 0.0
22/02:30pm 10.9 2.8 8.8 87 1.0 WNW 41 46 22 25 1026.8 1027.1 0.0
22/02:00pm 10.8 2.3 8.4 85 1.2 WNW 43 50 23 27 1026.9 1027.2 0.0
22/01:30pm 10.8 3.0 8.2 84 1.3 NW 39 44 21 24 1026.9 1027.2 0.0
22/01:25pm 10.9 2.9 9.0 88 1.0 NNW 41 46 22 25 1026.9 1027.2 0.0
22/01:17pm 10.7 2.7 9.0 89 0.8 NNW 41 46 22 25 1026.8 1027.1 0.0
22/01:12pm 10.8 3.1 8.7 87 1.0 NNW 39 46 21 25 1026.9 1027.2 0.0
22/01:04pm 10.6 2.6 9.0 90 0.8 NW 41 46 22 25 1026.9 1027.2 0.0
22/01:00pm 10.6 2.5 8.7 88 0.9 NW 41 46 22 25 1026.9 1027.2 0.0
22/12:42pm 10.4 2.0 9.0 91 0.7 NW 43 48 23 26 1027.2 1027.5 0.0
22/12:39pm 10.3 1.8 8.7 90 0.8 NW 43 48 23 26 1027.1 1027.4 0.0
22/12:35pm 10.3 1.8 8.7 90 0.8 NNW 43 52 23 28 1027.1 1027.4 0.0
22/12:30pm 10.5 1.9 8.9 90 0.8 NNW 44 52 24 28 1027.0 1027.3 0.0
22/12:28pm 10.4 1.9 8.7 89 0.8 NNW 43 52 23 28 1027.0 1027.3 0.0
22/12:24pm 10.6 2.2 9.0 90 0.8 NNW 43 50 23 27 1027.1 1027.4 0.0
22/12:07pm 10.6 1.6 9.0 90 0.8 NNW 46 52 25 28 1027.1 1027.4 0.0
22/12:03pm 10.4 1.8 9.0 91 0.7 NNW 44 50 24 27 1027.3 1027.6 0.0
22/12:00pm 10.4 1.9 9.3 93 0.5 N 44 50 24 27 1027.3 1027.6 0.0
22/11:30am 10.3 1.8 9.1 92 0.6 N 44 50 24 27 1027.5 1027.8 0.0
22/11:00am 10.0 0.6 8.8 92 0.6 NNW 48 54 26 29 1027.6 1027.9 0.0
22/10:44am 9.6 -0.2 8.5 93 0.5 NNW 50 59 27 32 1027.3 1027.6 0.0
22/10:40am 10.2 0.4 8.8 91 0.7 NW 50 57 27 31 1027.5 1027.8 0.0
22/10:37am 10.3 0.5 8.6 89 0.8 NW 50 57 27 31 1027.4 1027.7 0.0
22/10:32am 10.5 0.7 8.6 88 0.9 NNW 50 56 27 30 1027.4 1027.7 0.0
22/10:30am 10.4 1.0 8.7 89 0.8 NNW 48 56 26 30 1027.3 1027.6 0.0
22/10:12am 10.4 1.0 8.7 89 0.8 NW 48 54 26 29 1027.3 1027.6 0.0
22/10:07am 10.3 0.8 8.4 88 0.9 NNW 48 54 26 29 1027.4 1027.7 0.0
22/10:00am 10.1 0.2 8.4 89 0.8 N 50 59 27 32 1027.4 1027.7 0.0
22/09:30am 9.7 0.1 8.0 89 0.8 NNW 48 57 26 31 1027.3 1027.6 0.0
22/09:27am 10.0 0.8 8.1 88 0.9 NNW 46 57 25 31 1027.3 1027.6 0.0
22/09:10am 10.2 1.1 8.5 89 0.8 NNW 46 52 25 28 1027.3 1027.6 0.0
22/09:06am 10.0 0.9 8.3 89 0.8 NW 46 52 25 28 1027.2 1027.5 0.0
22/09:00am 9.9 0.7 8.2 89 0.8 NW 46 52 25 28 1027.2 1027.5 2.2
22/08:58am 9.9 0.7 8.2 89 0.8 NNW 46 52 25 28 1027.2 1027.5 2.2
22/08:43am 10.0 0.9 8.3 89 0.8 NW 46 57 25 31 1027.1 1027.4 2.2
22/08:37am 10.0 0.9 8.4 90 0.8 NW 46 54 25 29 1027.2 1027.5 2.2
22/08:34am 9.9 0.7 8.0 88 0.9 NW 46 54 25 29 1027.2 1027.5 2.2
22/08:30am 9.9 0.8 8.3 90 0.8 WNW 46 52 25 28 1027.2 1027.5 2.2
22/08:00am 9.8 0.6 8.2 90 0.8 NW 46 52 25 28 1027.1 1027.4 2.2
22/07:48am 9.6 0.4 8.2 91 0.7 NW 46 56 25 30 1027.1 1027.4 2.2
22/07:42am 9.7 0.3 8.6 93 0.5 NW 48 56 26 30 1026.9 1027.2 2.2
22/07:37am 9.4 0.9 8.6 95 0.4 NW 43 56 23 30 1026.8 1027.1 2.2
22/07:34am 9.6 2.4 9.1 97 0.2 NW 37 48 20 26 1026.8 1027.1 2.2
22/07:30am 9.3 2.8 9.0 98 0.1 NNW 33 43 18 23 1027.0 1027.3 2.2
22/07:29am 9.1 2.6 8.8 98 0.1 NNW 33 43 18 23 1027.0 1027.3 2.2
22/07:00am 9.4 0.4 8.9 97 0.2 N 46 54 25 29 1026.4 1026.6 2.2
22/06:30am 9.5 -0.8 8.3 92 0.6 N 52 57 28 31 1026.0 1026.2 1.8
22/06:00am 9.3 -1.7 8.4 94 0.4 N 56 63 30 34 1025.5 1025.7 1.6
22/05:54am 9.3 -0.3 8.1 92 0.6 N 48 61 26 33 1025.4 1025.6 1.6
22/05:50am 9.3 1.5 8.2 93 0.5 N 39 59 21 32 1025.6 1025.8 1.6
22/05:30am 8.8 1.8 6.8 87 0.9 NNW 33 44 18 24 1025.5 1025.7 1.6
22/05:00am 8.8 0.5 6.3 84 1.2 NNW 39 52 21 28 1025.5 1025.7 1.6
22/04:30am 9.1 1.2 6.2 82 1.3 NNW 37 48 20 26 1025.4 1025.6 1.6
22/04:00am 9.0 1.5 6.4 84 1.2 NNW 35 44 19 24 1025.6 1025.8 1.6
22/03:30am 9.0 2.1 6.3 83 1.3 NNW 32 39 17 21 1025.7 1025.9 1.6
22/03:00am 8.9 1.9 6.0 82 1.3 NNW 32 41 17 22 1025.6 1025.8 1.6
22/02:30am 9.0 2.3 5.7 80 1.5 NNW 30 41 16 22 1025.7 1025.9 1.6
22/02:00am 9.1 1.5 5.7 79 1.5 NNW 35 44 19 24 1025.8 1026.0 1.6
22/01:30am 9.1 0.4 5.8 80 1.5 N 41 48 22 26 1025.6 1025.8 1.6
22/01:00am 9.2 0.3 5.0 75 1.9 NNW 41 50 22 27 1025.9 1026.1 1.6
22/12:30am 9.2 -0.4 4.6 73 2.1 NNW 44 52 24 28 1026.0 1026.2 1.6
22/12:17am 9.2 -0.2 4.2 71 2.2 NNW 43 50 23 27 1026.1 1026.3 1.6
22/12:15am 9.3 -0.1 4.3 71 2.2 NNW 43 52 23 28 1026.1 1026.3 1.6
22/12:00am 9.2 -0.3 4.0 70 2.3 NNW 43 48 23 26 1026.0 1026.2 1.6
 
Date/Time
EST
Temp
°C
App
Temp
°C
Dew
Point
°C
Rel
Hum
%
Delta-T
°C
Wind Press
QNH
hPa
Press
MSL
hPa
Rain since
9am
mm
Dir  Spd
km/h
Gust
km/h
Spd
kts
Gust
kts
21/11:44pm 9.2 -0.2 4.2 71 2.2 NW 43 48 23 26 1026.1 1026.3 1.6
21/11:30pm 9.1 0.0 3.9 70 2.3 WNW 41 46 22 25 1026.2 1026.4 1.6
21/11:16pm 9.1 0.0 4.1 71 2.2 NW 41 48 22 26 1026.1 1026.3 1.6
21/11:14pm 9.1 0.0 4.1 71 2.2 NW 41 48 22 26 1026.0 1026.2 1.6
21/11:09pm 9.2 0.1 4.2 71 2.2 NW 41 48 22 26 1026.1 1026.3 1.6
21/11:05pm 9.3 -0.1 4.5 72 2.1 NW 43 48 23 26 1026.0 1026.2 1.6
21/11:00pm 9.1 -0.4 3.7 69 2.3 NW 43 50 23 27 1026.2 1026.4 1.6
21/10:59pm 9.2 -0.3 4.0 70 2.3 NNW 43 50 23 27 1026.2 1026.4 1.6
21/10:46pm 9.3 -0.2 3.9 69 2.4 NW 43 48 23 26 1025.9 1026.1 1.6
21/10:38pm 9.2 -0.3 4.0 70 2.3 NW 43 50 23 27 1026.1 1026.3 1.6
21/10:30pm 9.3 0.3 4.3 71 2.2 NNW 41 50 22 27 1026.0 1026.2 1.6
21/10:26pm 9.4 1.2 4.6 72 2.2 NW 37 44 20 24 1026.1 1026.3 1.6
21/10:15pm 9.2 0.0 3.6 68 2.4 NW 41 52 22 28 1026.1 1026.3 1.6
21/10:11pm 9.3 0.1 3.7 68 2.5 NNW 41 52 22 28 1025.8 1026.0 1.6
21/10:07pm 9.2 0.4 3.8 69 2.4 NNW 39 48 21 26 1026.1 1026.3 1.6
21/10:00pm 9.3 -0.2 3.7 68 2.4 NNW 43 50 23 27 1026.1 1026.3 1.6
21/09:53pm 9.3 -0.2 3.7 68 2.5 NW 43 50 23 27 1026.0 1026.2 1.6
21/09:30pm 9.2 -0.9 4.0 70 2.3 NW 46 52 25 28 1025.8 1026.0 1.6
21/09:00pm 9.4 1.2 4.6 72 2.1 NW 37 48 20 26 1025.7 1025.9 1.6
21/08:57pm 9.5 1.7 4.9 73 2.1 NW 35 46 19 25 1025.8 1026.0 1.6
21/08:45pm 9.5 0.3 3.3 65 2.7 WNW 41 48 22 26 1025.6 1025.8 1.6
21/08:30pm 9.5 2.2 4.5 71 2.2 WNW 32 41 17 22 1025.4 1025.6 1.6
21/08:00pm 9.5 2.5 4.3 70 2.3 WNW 30 37 16 20 1025.3 1025.5 1.6
21/07:45pm 9.5 1.2 4.3 70 2.3 NNW 37 43 20 23 1025.0 1025.2 1.6
21/07:38pm 9.4 0.7 4.2 70 2.3 NNW 39 44 21 24 1025.0 1025.2 1.6
21/07:30pm 9.5 1.7 4.7 72 2.2 NNW 35 44 19 24 1024.8 1025.0 1.6
21/07:00pm 9.3 2.0 4.3 71 2.2 WNW 32 37 17 20 1025.0 1025.2 1.6
21/06:30pm 9.5 2.0 4.7 72 2.2 WNW 33 44 18 24 1024.7 1024.9 1.6
21/06:00pm 9.5 2.3 4.9 73 2.1 WNW 32 39 17 21 1024.4 1024.6 1.6
21/05:30pm 9.6 3.6 5.2 74 2.0 W 26 35 14 19 1024.2 1024.4 1.6
21/05:00pm 9.6 3.6 5.2 74 2.0 W 26 35 14 19 1024.1 1024.3 1.6
21/04:30pm 9.6 4.4 5.6 76 1.8 WSW 22 30 12 16 1024.1 1024.3 1.6
21/04:00pm 9.7 4.1 5.5 75 1.9 SW 24 35 13 19 1023.8 1024.0 1.6
21/03:30pm 9.9 4.9 6.6 80 1.6 SSW 22 32 12 17 1023.5 1023.7 1.6
21/03:00pm 9.7 4.1 7.0 83 1.3 SSW 26 32 14 17 1023.4 1023.6 1.6
21/02:30pm 10.2 5.8 7.4 83 1.3 SSW 20 28 11 15 1023.2 1023.4 1.6
21/02:00pm 9.9 4.6 7.0 82 1.4 SSW 24 28 13 15 1023.0 1023.3 1.6
21/01:30pm 9.9 4.7 7.3 84 1.2 S 24 28 13 15 1023.0 1023.3 1.6
21/01:00pm 9.9 4.1 8.0 88 0.9 S 28 32 15 17 1023.3 1023.5 1.6
21/12:30pm 10.6 5.7 8.5 87 1.0 S 24 30 13 16 1023.0 1023.3 1.6
21/12:00pm 9.9 4.9 8.0 88 0.9 S 24 30 13 16 1023.2 1023.4 1.6
21/11:30am 9.7 3.9 8.1 90 0.8 S 28 33 15 18 1023.4 1023.6 1.6
21/11:00am 9.9 5.7 8.2 89 0.8 S 20 26 11 14 1023.6 1023.8 1.6
21/10:30am 9.3 5.6 8.1 92 0.6 S 17 20 9 11 1023.6 1023.8 1.6
21/10:00am 9.0 3.6 8.1 94 0.4 S 26 28 14 15 1023.5 1023.7 1.6
21/09:30am 9.1 3.4 8.3 95 0.4 S 28 35 15 19 1023.3 1023.5 0.8
21/09:00am 9.3 5.1 8.2 93 0.5 S 20 28 11 15 1023.0 1023.3 2.0
21/08:30am 9.1 6.8 7.5 90 0.8 SSW 9 15 5 8 1022.7 1023.0 2.0
21/08:00am 8.7 4.3 7.6 93 0.5 S 20 33 11 18 1022.5 1022.8 1.6
21/07:30am 9.2 7.3 7.6 90 0.8 NNW 7 13 4 7 1022.1 1022.4 1.4
21/07:00am 8.9 6.6 7.4 90 0.7 SW 9 13 5 7 1021.8 1022.1 1.4
21/06:30am 8.6 6.8 7.2 91 0.7 S 6 9 3 5 1021.4 1021.7 1.4
21/06:00am 8.5 5.8 7.4 93 0.5 S 11 15 6 8 1021.1 1021.4 1.4
21/05:30am 8.7 7.0 7.6 93 0.5 SSW 6 11 3 6 1020.9 1021.1 1.4
21/05:00am 8.8 7.1 7.7 93 0.5 SSW 6 9 3 5 1020.7 1020.9 1.4
21/04:30am 8.6 6.7 7.4 92 0.6 NNE 7 13 4 7 1020.4 1020.6 1.4
21/04:00am 8.3 6.6 7.4 94 0.4 N 6 11 3 6 1020.5 1020.7 1.4
21/03:30am 8.7 5.6 7.3 91 0.7 NE 13 20 7 11 1020.3 1020.5 0.0
21/03:00am 9.1 7.2 6.7 85 1.1 NNE 6 11 3 6 1020.3 1020.5 0.0
21/02:30am 9.4 6.8 6.1 80 1.5 ENE 9 17 5 9 1020.3 1020.5 0.0
21/02:00am 8.9 6.4 4.9 76 1.8 ENE 7 17 4 9 1020.1 1020.3 0.0
21/01:30am 9.0 6.7 4.6 74 2.0 N 6 7 3 4 1020.1 1020.3 0.0
21/01:00am 8.8 7.5 4.2 73 2.0 CALM 0 6 0 3 1020.0 1020.2 0.0
21/12:30am 9.5 6.9 4.1 69 2.4 NNW 7 19 4 10 1020.2 1020.4 0.0
21/12:00am 9.3 6.6 3.5 67 2.5 NNW 7 11 4 6 1020.1 1020.3 0.0
 
Date/Time
EST
Temp
°C
App
Temp
°C
Dew
Point
°C
Rel
Hum
%
Delta-T
°C
Wind Press
QNH
hPa
Press
MSL
hPa
Rain since
9am
mm
Dir  Spd
km/h
Gust
km/h
Spd
kts
Gust
kts
20/11:30pm 9.2 6.4 3.4 67 2.5 NW 7 13 4 7 1020.3 1020.5 0.0
20/11:00pm 8.8 5.6 3.2 68 2.4 N 9 13 5 7 1020.4 1020.6 0.0
20/10:30pm 8.8 6.3 3.6 70 2.3 NW 6 9 3 5 1020.4 1020.6 0.0
20/10:00pm 9.3 6.8 3.7 68 2.4 NNW 6 7 3 4 1020.2 1020.4 0.0
20/09:30pm 9.3 6.8 3.7 68 2.5 N 6 9 3 5 1020.2 1020.4 0.0
20/09:00pm 9.3 6.8 3.5 67 2.5 NNW 6 13 3 7 1020.3 1020.5 0.0
20/08:30pm 9.3 6.8 3.5 67 2.5 NNW 6 9 3 5 1020.2 1020.4 0.0
20/08:00pm 9.2 6.0 3.2 66 2.6 NNE 9 17 5 9 1020.1 1020.3 0.0
20/07:30pm 9.2 6.5 2.8 64 2.7 N 6 13 3 7 1020.1 1020.3 0.0
20/07:00pm 9.2 6.3 2.8 64 2.7 NNE 7 15 4 8 1020.1 1020.3 0.0
20/06:30pm 9.2 5.1 2.5 63 2.9 NE 13 30 7 16 1019.8 1020.0 0.0
20/06:00pm 9.3 6.6 3.5 67 2.5 N 7 11 4 6 1019.6 1019.8 0.0
20/05:30pm 9.2 6.4 3.4 67 2.5 NNW 7 13 4 7 1019.5 1019.7 0.0
20/05:00pm 9.2 6.6 3.0 65 2.7 N 6 9 3 5 1019.5 1019.7 0.0
20/04:30pm 9.3 5.9 4.1 70 2.3 NE 11 22 6 12 1019.3 1019.5 0.0
20/04:00pm 9.2 6.6 3.4 67 2.5 N 6 9 3 5 1019.3 1019.5 0.0
20/03:30pm 9.4 6.7 3.6 67 2.5 N 7 17 4 9 1019.4 1019.6 0.0
20/03:00pm 9.6 7.0 4.2 69 2.4 N 7 13 4 7 1019.3 1019.5 0.0
20/02:30pm 9.8 7.2 4.4 69 2.4 N 7 13 4 7 1019.0 1019.2 0.0
20/02:00pm 9.6 6.7 4.6 71 2.2 NNE 9 19 5 10 1019.1 1019.3 0.0
20/01:30pm 9.5 7.2 4.7 72 2.2 N 6 19 3 10 1019.2 1019.4 0.0
20/01:00pm 10.1 7.8 5.7 74 2.0 N 7 11 4 6 1019.2 1019.4 0.0
20/12:30pm 10.1 7.8 4.9 70 2.4 N 6 9 3 5 1019.3 1019.5 0.0
20/12:00pm 10.2 7.8 4.1 66 2.7 N 6 7 3 4 1019.5 1019.7 0.0
20/11:30am 10.0 7.4 4.2 67 2.6 N 7 9 4 5 1019.5 1019.7 0.0
20/11:00am 9.7 7.2 4.7 71 2.2 N 7 13 4 7 1019.7 1019.9 0.0
20/10:30am 9.6 7.0 4.2 69 2.4 N 7 11 4 6 1019.7 1019.9 0.0
20/10:00am 9.5 6.6 4.9 73 2.1 NNE 9 19 5 10 1019.6 1019.8 0.0
20/09:30am 9.3 6.7 4.3 71 2.2 NNE 7 13 4 7 1019.4 1019.6 0.0
20/09:00am 9.4 7.1 4.8 73 2.1 N 6 9 3 5 1019.3 1019.5 -
20/08:30am 8.9 6.4 4.7 75 1.9 N 7 11 4 6 1019.2 1019.4 -
20/08:00am 8.6 4.7 5.2 79 1.5 NE 15 33 8 18 1019.0 1019.2 -
20/07:30am 8.4 5.9 4.6 77 1.7 N 7 17 4 9 1018.8 1019.0 -
20/07:00am 8.5 5.9 6.0 84 1.1 N 9 15 5 8 1018.7 1018.9 -
20/06:30am 8.4 5.0 5.9 84 1.1 ENE 13 26 7 14 1018.4 1018.6 -
20/06:00am 8.2 4.8 5.8 85 1.1 NE 13 20 7 11 1018.2 1018.4 -
20/05:30am 8.2 4.7 5.5 83 1.2 ENE 13 28 7 15 1018.1 1018.3 -
20/05:00am 8.6 6.2 5.4 80 1.4 N 7 11 4 6 1018.0 1018.2 -
20/04:30am 8.4 4.2 5.7 83 1.2 SSE 17 28 9 15 1018.0 1018.2 -
20/04:00am 8.0 5.4 6.0 87 0.9 ESE 9 20 5 11 1018.1 1018.3 -
20/03:30am 8.4 5.8 5.9 84 1.1 NNE 9 19 5 10 1018.1 1018.3 -
20/03:00am 8.6 5.9 5.7 82 1.3 ESE 9 22 5 12 1018.1 1018.3 -
20/02:30am 8.6 5.8 5.2 79 1.5 E 9 20 5 11 1018.2 1018.4 -
20/02:00am 8.7 6.0 5.6 81 1.4 E 9 17 5 9 1018.1 1018.3 -
20/01:30am 8.6 6.5 5.7 82 1.3 NNE 6 11 3 6 1018.0 1018.2 -
20/01:00am 9.1 7.0 5.7 79 1.6 N 6 9 3 5 1018.0 1018.2 -
20/12:30am 8.9 6.7 5.1 77 1.7 N 6 9 3 5 1018.0 1018.2 -
20/12:00am 8.9 6.7 5.3 78 1.6 NNW 6 9 3 5 1018.0 1018.2 -
 
Date/Time
EST
Temp
°C
App
Temp
°C
Dew
Point
°C
Rel
Hum
%
Delta-T
°C
Wind Press
QNH
hPa
Press
MSL
hPa
Rain since
9am
mm
Dir  Spd
km/h
Gust
km/h
Spd
kts
Gust
kts
19/11:30pm 8.7 5.8 4.5 75 1.9 NNW 9 19 5 10 1017.8 1018.0 -
19/11:00pm 8.9 6.4 4.9 76 1.8 NNW 7 13 4 7 1017.8 1018.0 -
19/10:30pm 8.3 5.8 4.7 78 1.6 NNE 7 13 4 7 1017.7 1017.9 -
19/10:00pm 8.7 5.8 4.9 77 1.7 N 9 17 5 9 1017.7 1017.9 -
19/09:30pm 8.4 6.1 4.8 78 1.6 NNW 6 11 3 6 1017.7 1017.9 -
19/09:00pm 8.0 5.0 4.2 77 1.7 N 9 15 5 8 1017.6 1017.8 -
19/08:30pm 8.4 5.6 5.3 81 1.4 WNW 9 20 5 11 1017.6 1017.8 -
19/08:00pm 8.5 5.4 3.8 72 2.0 NW 9 17 5 9 1017.5 1017.7 -
19/07:30pm 7.8 5.1 3.8 76 1.7 NNW 7 13 4 7 1017.5 1017.7 -
19/07:00pm 8.5 5.9 6.0 84 1.1 NNW 9 13 5 7 1017.4 1017.6 -
19/06:30pm 8.5 6.3 6.1 85 1.1 NNE 7 13 4 7 1017.4 1017.6 -
19/06:00pm 8.2 6.2 6.2 87 0.9 N 6 9 3 5 1017.1 1017.3 -
19/05:30pm 7.8 5.7 5.8 87 0.9 NNW 6 11 3 6 1016.9 1017.1 -
19/05:00pm 8.4 6.2 5.5 82 1.3 N 6 11 3 6 1016.9 1017.1 -
19/04:30pm 8.3 6.2 5.9 85 1.1 NNW 6 9 3 5 1016.8 1017.0 -
19/04:00pm 8.5 6.6 6.5 87 0.9 NNW 6 11 3 6 1016.6 1016.8 -
19/03:30pm 8.8 7.0 7.3 90 0.7 NNW 6 11 3 6 1016.4 1016.6 -

Other formats

Comma delimited format used in spreadsheet applications
http://www.bom.gov.au/fwo/IDT60801/IDT60801.94962.axf

JavaScript Object Notation format (JSON) in row-major order
http://www.bom.gov.au/fwo/IDT60801/IDT60801.94962.json

Data quality

Most of these data are generated automatically and are frequently updated. Quality checks on data are not normally performed. It is possible for incorrect values to appear. Refer to information at About Latest Weather Observations and please check the disclaimer before using these data.